METAR Data
IDs: Format: Raw Decoded Include TAF

Data at: 1450 UTC 25 Jan 2020

METAR for:KCJR (Culpeper Rgnl, VA, US)
Text:KCJR 251435Z AUTO 35003KT 1 1/2SM BR OVC003 08/08 A2988 RMK AO2 VIS 1V2 1/2 T00840076
Temperature: 8.4°C ( 47°F)
Dewpoint: 7.6°C ( 46°F) [RH = 95%]
Pressure (altimeter):29.88 inches Hg (1011.9 mb)
Winds:from the N (350 degrees) at 3 MPH (3 knots; 1.5 m/s)
Visibility: 1.50 sm ( 2.41 km)
Ceiling:300 feet AGL
Clouds: overcast cloud deck at 300 feet AGL
Weather:BR (mist)
QC Flag:automated observation with no human augmentation